Time;durP1;ratioP1;P1;durP2;ratioP2;P2;SDS_P1;SDS_P2;PMS_P1;PMS_P2;Temp;Humidity;BMP_temperature;BMP_pressure;BME280_temperature;BME280_humidity;BME280_pressure;Samples;Min_cycle;Max_cycle;Signal;HPM_P1;HPM_P2
2024/04/04 00:02:10;;;;;;;6.22;1.92;;;16.00;61.00;;;;;;6286981;28;20047;-70
2024/04/04 00:05:12;;;;;;;3.55;2.00;;;16.10;61.20;;;;;;6296218;28;20024;-69
2024/04/04 00:08:12;;;;;;;6.10;2.00;;;16.10;61.30;;;;;;6307020;28;20070;-70
2024/04/04 00:11:13;;;;;;;4.78;2.10;;;16.00;61.30;;;;;;6296956;28;20452;-70
2024/04/04 00:14:14;;;;;;;2.20;1.60;;;16.00;61.20;;;;;;6288141;28;20473;-69
2024/04/04 00:17:15;;;;;;;3.67;1.95;;;16.10;61.20;;;;;;6305884;28;20462;-70
2024/04/04 00:20:16;;;;;;;6.30;1.80;;;16.10;61.00;;;;;;6298451;28;20020;-71
2024/04/04 00:23:17;;;;;;;5.07;2.00;;;16.10;61.00;;;;;;6306073;28;20099;-70
2024/04/04 00:26:20;;;;;;;7.40;2.03;;;16.10;61.00;;;;;;6286456;28;20024;-70
2024/04/04 00:29:21;;;;;;;3.80;2.00;;;16.10;61.10;;;;;;6304174;28;20073;-69
2024/04/04 00:32:21;;;;;;;5.32;1.85;;;16.10;61.00;;;;;;6306017;28;20333;-70
2024/04/04 00:35:22;;;;;;;5.95;2.17;;;16.10;61.10;;;;;;6282243;28;20396;-70
2024/04/04 00:38:23;;;;;;;3.75;1.90;;;16.10;61.10;;;;;;6295028;28;20114;-68
2024/04/04 00:41:24;;;;;;;4.82;2.38;;;16.10;61.30;;;;;;6297642;28;20013;-68
2024/04/04 00:44:25;;;;;;;3.35;1.90;;;16.00;61.30;;;;;;6291882;28;20466;-69
2024/04/04 00:47:26;;;;;;;3.83;1.90;;;15.90;61.50;;;;;;6299852;28;20021;-69
2024/04/04 00:50:27;;;;;;;3.15;1.85;;;15.90;61.80;;;;;;6289683;28;20016;-70
2024/04/04 00:53:29;;;;;;;3.08;1.98;;;15.90;61.90;;;;;;6303128;28;20020;-69
2024/04/04 00:56:30;;;;;;;5.20;2.38;;;15.90;62.10;;;;;;6287158;28;20077;-69
2024/04/04 00:59:31;;;;;;;8.52;2.22;;;15.80;62.20;;;;;;6264369;28;20031;-69
2024/04/04 01:02:31;;;;;;;2.20;1.77;;;15.80;62.30;;;;;;6290627;28;20025;-69
2024/04/04 01:05:32;;;;;;;5.25;1.90;;;15.70;62.40;;;;;;6293153;28;20017;-69
2024/04/04 01:08:33;;;;;;;5.63;1.95;;;15.60;62.60;;;;;;6275663;28;20504;-69
2024/04/04 01:11:34;;;;;;;5.15;1.55;;;15.60;62.90;;;;;;6288016;28;20073;-70
2024/04/04 01:14:35;;;;;;;2.38;1.50;;;15.60;63.10;;;;;;6304135;28;20687;-68
2024/04/04 01:17:36;;;;;;;3.20;2.00;;;15.50;63.10;;;;;;6302293;28;20012;-70
2024/04/04 01:20:37;;;;;;;3.50;1.83;;;15.50;63.20;;;;;;6310571;28;20027;-70
2024/04/04 01:23:42;;;;;;;3.95;1.80;;;15.50;63.20;;;;;;6311266;28;20672;-69
2024/04/04 01:26:42;;;;;;;3.25;2.03;;;15.50;63.20;;;;;;6305898;28;20024;-69
2024/04/04 01:29:43;;;;;;;4.63;2.20;;;15.60;63.20;;;;;;6296983;28;20031;-69
2024/04/04 01:32:44;;;;;;;6.30;1.98;;;15.60;63.20;;;;;;6296961;28;20460;-69
2024/04/04 01:35:45;;;;;;;3.67;1.95;;;15.60;63.30;;;;;;6287278;28;20039;-70
2024/04/04 01:38:46;;;;;;;5.47;2.20;;;15.50;63.30;;;;;;6303999;28;20024;-70
2024/04/04 01:41:47;;;;;;;3.75;1.88;;;15.50;63.40;;;;;;6298218;28;20016;-69
2024/04/04 01:44:47;;;;;;;3.90;1.55;;;15.50;63.40;;;;;;6309777;28;20020;-70
2024/04/04 01:47:48;;;;;;;4.93;1.92;;;15.50;63.50;;;;;;6302924;28;20444;-69
2024/04/04 01:50:49;;;;;;;4.22;2.28;;;15.50;63.60;;;;;;6296840;28;20012;-69
2024/04/04 01:53:50;;;;;;;4.82;2.10;;;15.50;63.70;;;;;;6302662;28;20096;-71
2024/04/04 01:56:51;;;;;;;3.88;1.92;;;15.40;63.90;;;;;;6302685;28;20028;-69
2024/04/04 01:59:52;;;;;;;5.72;2.10;;;15.40;64.10;;;;;;6291779;28;20024;-69
2024/04/04 02:02:55;;;;;;;4.35;2.25;;;15.30;64.10;;;;;;6296023;28;20173;-69
2024/04/04 02:05:56;;;;;;;3.97;1.80;;;15.30;64.10;;;;;;6307975;28;20071;-70
2024/04/04 02:08:57;;;;;;;4.72;2.13;;;15.30;64.10;;;;;;6298014;28;20131;-70
2024/04/04 02:11:58;;;;;;;4.80;1.85;;;15.30;64.20;;;;;;6288813;28;20036;-70
2024/04/04 02:14:58;;;;;;;4.72;1.90;;;15.30;64.30;;;;;;6291287;28;20398;-70
2024/04/04 02:18:00;;;;;;;4.03;2.28;;;15.20;64.40;;;;;;6299374;28;20004;-70
2024/04/04 02:21:01;;;;;;;4.90;2.50;;;15.20;64.60;;;;;;6298044;28;20038;-68
2024/04/04 02:24:02;;;;;;;5.85;2.22;;;15.20;64.90;;;;;;6308870;28;20020;-70
2024/04/04 02:27:03;;;;;;;4.03;2.45;;;15.10;65.10;;;;;;6305414;28;20034;-69
2024/04/04 02:30:05;;;;;;;3.05;1.77;;;15.00;65.20;;;;;;6305805;28;20039;-69
2024/04/04 02:33:06;;;;;;;8.13;2.42;;;15.00;65.50;;;;;;6296909;28;20052;-70
2024/04/04 02:36:07;;;;;;;3.58;1.80;;;15.00;65.70;;;;;;6300633;28;20036;-70
2024/04/04 02:39:13;;;;;;;2.08;1.63;;;15.00;65.80;;;;;;6299123;28;20433;-70
2024/04/04 02:42:14;;;;;;;2.70;1.90;;;14.90;65.60;;;;;;6267513;28;20013;-69
2024/04/04 02:45:16;;;;;;;2.40;1.70;;;14.90;65.60;;;;;;6282956;28;20061;-70
2024/04/04 02:48:19;;;;;;;3.88;2.42;;;14.90;65.70;;;;;;6301684;28;20085;-70
2024/04/04 02:51:20;;;;;;;8.73;2.58;;;14.90;65.90;;;;;;6283291;28;20047;-69
2024/04/04 02:54:21;;;;;;;4.50;2.08;;;14.70;66.00;;;;;;6302056;28;20024;-70
2024/04/04 02:57:22;;;;;;;2.42;1.52;;;14.80;66.30;;;;;;6306740;28;20157;-69
2024/04/04 03:00:23;;;;;;;5.18;2.22;;;14.70;66.40;;;;;;6289174;28;20066;-70
2024/04/04 03:03:23;;;;;;;6.18;2.20;;;14.70;66.60;;;;;;6297348;28;20036;-70
2024/04/04 03:06:24;;;;;;;5.03;1.95;;;14.60;66.80;;;;;;6269736;28;20073;-69
2024/04/04 03:09:25;;;;;;;3.78;2.15;;;14.60;67.00;;;;;;6293671;28;20024;-69
2024/04/04 03:12:26;;;;;;;4.13;2.08;;;14.60;67.10;;;;;;6306068;28;20016;-69
2024/04/04 03:15:27;;;;;;;3.80;2.03;;;14.60;67.20;;;;;;6300672;28;20048;-68
2024/04/04 03:18:28;;;;;;;3.38;2.00;;;14.40;67.10;;;;;;6296769;28;20103;-70
2024/04/04 03:21:29;;;;;;;6.95;1.85;;;14.60;67.10;;;;;;6288118;28;20483;-69
2024/04/04 03:24:30;;;;;;;3.70;1.95;;;14.60;67.10;;;;;;6281362;28;20012;-70
2024/04/04 03:27:30;;;;;;;2.63;2.17;;;14.60;67.00;;;;;;6281631;28;20660;-70
2024/04/04 03:30:33;;;;;;;5.03;2.17;;;14.60;67.00;;;;;;6281238;28;20053;-69
2024/04/04 03:33:34;;;;;;;7.68;2.40;;;14.60;67.00;;;;;;6289432;28;20526;-69
2024/04/04 03:37:25;;;;;;;6.40;2.00;;;14.60;67.10;;;;;;6300673;28;20046;-69
2024/04/04 03:40:26;;;;;;;2.28;1.80;;;14.60;67.30;;;;;;6293477;28;20111;-69
2024/04/04 03:43:26;;;;;;;4.47;1.63;;;14.50;67.20;;;;;;6286064;28;20478;-68
2024/04/04 03:46:27;;;;;;;5.22;2.10;;;14.50;67.20;;;;;;6283957;28;20043;-68
2024/04/04 03:49:28;;;;;;;2.90;1.98;;;14.50;67.20;;;;;;6296742;28;20040;-69
2024/04/04 03:52:29;;;;;;;3.40;1.90;;;14.50;67.10;;;;;;6304595;28;20106;-71
2024/04/04 03:55:30;;;;;;;5.30;1.95;;;14.60;67.10;;;;;;6306449;28;20039;-69
2024/04/04 03:58:31;;;;;;;6.90;2.08;;;14.60;67.10;;;;;;6305676;28;20032;-69
2024/04/04 04:01:32;;;;;;;4.07;1.92;;;14.50;67.10;;;;;;6307192;28;20505;-69
2024/04/04 04:04:33;;;;;;;3.35;1.90;;;14.60;67.10;;;;;;6293189;28;20033;-68
2024/04/04 04:07:34;;;;;;;4.10;2.33;;;14.50;66.90;;;;;;6287486;28;20113;-70
2024/04/04 04:10:35;;;;;;;7.53;2.10;;;14.50;67.00;;;;;;6293645;28;20044;-69
2024/04/04 04:13:36;;;;;;;4.32;2.10;;;14.40;67.00;;;;;;6301695;28;20181;-71
2024/04/04 04:16:37;;;;;;;5.97;2.08;;;14.40;67.10;;;;;;6283898;28;20115;-70
2024/04/04 04:19:38;;;;;;;4.32;1.77;;;14.40;67.00;;;;;;6297340;28;20420;-68
2024/04/04 04:22:39;;;;;;;7.43;2.10;;;14.40;67.00;;;;;;6306608;28;20028;-70
2024/04/04 04:25:40;;;;;;;1.55;1.25;;;14.40;67.00;;;;;;6306054;28;20487;-70
2024/04/04 04:28:41;;;;;;;2.30;1.40;;;14.40;67.10;;;;;;6291610;28;20484;-74
2024/04/04 04:31:42;;;;;;;2.97;1.55;;;14.40;67.00;;;;;;6299751;28;20016;-69
2024/04/04 04:34:42;;;;;;;3.70;1.83;;;14.40;66.90;;;;;;6306645;28;20226;-70
2024/04/04 04:37:43;;;;;;;5.60;2.20;;;14.40;67.00;;;;;;6299761;28;20403;-72
2024/04/04 04:40:44;;;;;;;13.15;2.70;;;14.40;67.10;;;;;;6273604;28;20013;-70
2024/04/04 04:43:46;;;;;;;8.30;3.20;;;14.30;67.10;;;;;;6296204;28;20416;-68
2024/04/04 04:46:47;;;;;;;4.05;1.98;;;14.30;67.10;;;;;;6305711;28;20024;-69
2024/04/04 04:49:50;;;;;;;6.78;2.25;;;14.20;67.30;;;;;;6280424;28;20055;-70
2024/04/04 04:52:51;;;;;;;6.88;2.25;;;14.20;67.50;;;;;;6286245;28;20024;-70
2024/04/04 04:55:52;;;;;;;3.70;2.15;;;14.10;67.50;;;;;;6302662;28;20524;-70
2024/04/04 04:58:52;;;;;;;7.07;2.63;;;14.10;67.60;;;;;;6295208;28;20484;-70
2024/04/04 05:01:54;;;;;;;7.68;3.08;;;14.10;67.60;;;;;;6285353;28;20246;-70
2024/04/04 05:04:55;;;;;;;8.60;2.97;;;14.10;67.60;;;;;;6296096;28;20106;-70
2024/04/04 05:07:55;;;;;;;5.15;2.80;;;14.10;67.60;;;;;;6307734;28;20149;-69
2024/04/04 05:10:56;;;;;;;3.03;1.75;;;14.10;67.60;;;;;;6300415;28;20480;-69
2024/04/04 05:13:57;;;;;;;2.97;2.00;;;14.10;67.40;;;;;;6289414;28;20178;-70
2024/04/04 05:16:58;;;;;;;5.07;2.00;;;14.20;67.30;;;;;;6310196;28;20388;-70
2024/04/04 05:20:00;;;;;;;2.58;1.77;;;14.20;67.20;;;;;;6294438;28;20016;-70
2024/04/04 05:23:01;;;;;;;5.28;2.30;;;14.20;67.10;;;;;;6267291;28;20156;-69
2024/04/04 05:26:02;;;;;;;4.75;2.35;;;14.10;67.10;;;;;;6284545;28;20043;-69
2024/04/04 05:29:04;;;;;;;5.30;2.40;;;14.10;67.20;;;;;;6281788;28;20110;-68
2024/04/04 05:32:05;;;;;;;4.47;2.30;;;14.10;67.20;;;;;;6294801;28;20028;-70
2024/04/04 05:35:06;;;;;;;3.55;2.20;;;14.10;67.00;;;;;;6294031;28;20412;-70
2024/04/04 05:38:07;;;;;;;3.67;2.63;;;14.10;66.90;;;;;;6308098;28;20040;-69
2024/04/04 05:41:09;;;;;;;9.23;3.00;;;14.10;66.90;;;;;;6290885;28;20099;-69
2024/04/04 05:44:10;;;;;;;3.72;2.63;;;14.10;66.80;;;;;;6292910;28;20015;-71
2024/04/04 05:47:10;;;;;;;6.40;2.88;;;14.10;66.70;;;;;;6299776;28;20526;-69
2024/04/04 05:50:11;;;;;;;11.70;2.90;;;14.00;66.70;;;;;;6305880;28;20536;-68
2024/04/04 05:53:12;;;;;;;5.53;2.67;;;14.10;66.70;;;;;;6309254;28;20119;-70
2024/04/04 05:56:13;;;;;;;5.80;2.75;;;14.10;66.60;;;;;;6292255;28;20342;-69
2024/04/04 05:59:14;;;;;;;9.23;2.85;;;14.10;66.50;;;;;;6289749;28;20012;-69
2024/04/04 06:02:15;;;;;;;5.88;2.50;;;14.10;66.40;;;;;;6307055;28;20107;-69
2024/04/04 06:05:16;;;;;;;6.00;2.25;;;14.10;66.30;;;;;;6307977;28;20020;-70
2024/04/04 06:08:17;;;;;;;8.50;2.92;;;14.10;66.20;;;;;;6305051;28;20119;-70
2024/04/04 06:11:18;;;;;;;9.88;2.63;;;14.10;66.20;;;;;;6294742;28;20322;-69
2024/04/04 06:14:19;;;;;;;7.47;3.17;;;14.20;66.10;;;;;;6308321;28;20031;-67
2024/04/04 06:17:20;;;;;;;10.45;3.00;;;14.10;66.00;;;;;;6300953;28;20665;-68
2024/04/04 06:20:21;;;;;;;5.28;2.40;;;14.10;66.00;;;;;;6299756;28;20016;-71
2024/04/04 06:23:22;;;;;;;6.57;3.00;;;14.10;66.20;;;;;;6309486;28;20028;-69
2024/04/04 06:26:25;;;;;;;6.63;3.22;;;14.10;66.30;;;;;;6308644;28;20373;-70
2024/04/04 06:29:26;;;;;;;9.35;2.83;;;14.20;66.30;;;;;;6298832;28;20028;-69
2024/04/04 06:32:27;;;;;;;9.13;3.10;;;14.20;66.30;;;;;;6287198;28;20073;-69
2024/04/04 06:35:28;;;;;;;13.38;3.10;;;14.30;66.10;;;;;;6308018;28;20421;-68
2024/04/04 06:38:29;;;;;;;5.95;2.10;;;14.40;66.00;;;;;;6305066;28;20076;-69
2024/04/04 06:41:30;;;;;;;3.53;2.20;;;14.50;66.00;;;;;;6290579;28;20023;-68
2024/04/04 06:44:32;;;;;;;3.22;1.83;;;14.50;65.70;;;;;;6307999;28;20020;-69
2024/04/04 06:47:33;;;;;;;5.70;2.20;;;14.60;65.60;;;;;;6307835;28;20111;-68
2024/04/04 06:50:34;;;;;;;3.65;2.17;;;14.60;65.60;;;;;;6296085;28;20016;-70
2024/04/04 06:53:35;;;;;;;5.05;2.00;;;14.60;65.60;;;;;;6303094;28;20016;-70
2024/04/04 06:56:35;;;;;;;4.88;2.53;;;14.70;65.60;;;;;;6276174;28;20044;-69
2024/04/04 06:59:36;;;;;;;7.13;3.03;;;14.80;65.50;;;;;;6292569;28;20018;-71
2024/04/04 07:02:41;;;;;;;5.72;2.88;;;14.90;65.10;;;;;;6300982;28;20101;-69
2024/04/04 07:05:42;;;;;;;3.78;2.50;;;14.90;65.00;;;;;;6307936;28;20020;-69
2024/04/04 07:08:42;;;;;;;4.15;2.70;;;15.00;64.80;;;;;;6307429;28;20086;-69
2024/04/04 07:11:43;;;;;;;5.45;2.63;;;15.10;64.80;;;;;;6303602;28;20086;-69
2024/04/04 07:14:44;;;;;;;4.15;2.25;;;15.30;64.80;;;;;;6289902;28;20400;-70
2024/04/04 07:17:45;;;;;;;6.25;3.28;;;15.40;64.30;;;;;;6286194;28;20027;-69
2024/04/04 07:20:53;;;;;;;6.93;2.70;;;15.70;64.00;;;;;;6299148;28;20067;-70
2024/04/04 07:23:54;;;;;;;5.22;2.30;;;15.80;63.70;;;;;;6307827;28;20135;-70
2024/04/04 07:26:55;;;;;;;6.57;2.63;;;16.00;63.20;;;;;;6293926;28;20030;-71
2024/04/04 07:29:55;;;;;;;8.07;3.58;;;16.10;62.60;;;;;;6289154;28;20024;-72
2024/04/04 07:32:56;;;;;;;9.50;2.90;;;16.20;62.40;;;;;;6301122;28;20460;-69
2024/04/04 07:35:57;;;;;;;7.10;2.72;;;16.20;62.10;;;;;;6306594;28;20024;-71
2024/04/04 07:38:58;;;;;;;4.93;2.22;;;16.30;62.00;;;;;;6307859;28;20016;-71
2024/04/04 07:41:59;;;;;;;11.95;3.22;;;16.40;61.60;;;;;;6300089;28;20020;-70
2024/04/04 07:45:00;;;;;;;10.70;3.20;;;16.50;61.30;;;;;;6305776;28;20048;-69
2024/04/04 07:48:01;;;;;;;3.88;2.08;;;16.70;61.10;;;;;;6303486;28;20349;-69
2024/04/04 07:51:04;;;;;;;5.90;2.35;;;16.80;60.50;;;;;;6296628;28;20028;-68
2024/04/04 07:54:05;;;;;;;7.45;2.45;;;16.90;59.90;;;;;;6281830;28;20021;-70
2024/04/04 07:57:06;;;;;;;6.45;2.38;;;17.00;59.80;;;;;;6302209;28;20028;-70
2024/04/04 08:00:07;;;;;;;5.78;2.67;;;17.10;59.70;;;;;;6300385;28;20009;-70
2024/04/04 08:03:09;;;;;;;6.38;2.58;;;17.20;59.60;;;;;;6296897;28;20024;-69
2024/04/04 08:06:10;;;;;;;7.00;2.88;;;17.30;59.30;;;;;;6263123;28;20054;-70
2024/04/04 08:09:12;;;;;;;7.20;2.53;;;17.50;59.10;;;;;;6300818;28;20020;-70
2024/04/04 08:12:13;;;;;;;5.35;2.55;;;17.60;58.90;;;;;;6275077;28;20024;-71
2024/04/04 08:15:14;;;;;;;4.35;2.45;;;17.70;58.60;;;;;;6303960;28;20472;-70
2024/04/04 08:18:15;;;;;;;3.78;2.35;;;17.80;58.20;;;;;;6305483;28;20060;-69
2024/04/04 08:21:16;;;;;;;3.45;2.20;;;17.90;58.00;;;;;;6281143;28;20516;-70
2024/04/04 08:24:17;;;;;;;4.57;2.28;;;18.00;57.60;;;;;;6292102;28;20096;-71
2024/04/04 08:27:21;;;;;;;5.15;2.78;;;18.00;57.50;;;;;;6302235;28;20036;-69
2024/04/04 08:30:22;;;;;;;4.18;2.38;;;18.20;57.40;;;;;;6288070;28;20575;-69
2024/04/04 08:33:26;;;;;;;7.15;2.28;;;18.30;57.20;;;;;;6292689;28;20153;-70
2024/04/04 08:36:27;;;;;;;6.25;2.90;;;18.50;56.60;;;;;;6297426;28;20028;-69
2024/04/04 08:39:27;;;;;;;6.53;1.83;;;18.60;56.10;;;;;;6285665;28;20046;-70
2024/04/04 08:42:28;;;;;;;3.05;1.80;;;18.80;55.60;;;;;;6302515;28;20020;-69
2024/04/04 08:45:34;;;;;;;5.75;2.90;;;18.90;55.10;;;;;;6310213;28;20498;-70
2024/04/04 08:48:35;;;;;;;2.90;1.67;;;19.10;54.90;;;;;;6308063;28;20821;-69
2024/04/04 08:51:37;;;;;;;4.00;2.47;;;19.20;52.80;;;;;;6290673;28;20099;-69
2024/04/04 08:54:38;;;;;;;5.63;2.40;;;19.20;52.60;;;;;;6302261;28;20016;-70
2024/04/04 08:57:39;;;;;;;5.57;1.95;;;19.40;52.50;;;;;;6310452;28;20027;-71
2024/04/04 09:00:41;;;;;;;5.45;2.45;;;19.50;52.00;;;;;;6309563;28;20020;-69
2024/04/04 09:03:44;;;;;;;16.52;1.77;;;19.70;51.70;;;;;;6301879;28;20481;-68
2024/04/04 09:06:45;;;;;;;10.20;1.30;;;19.70;51.20;;;;;;6290626;28;20070;-70
2024/04/04 09:09:46;;;;;;;3.30;1.17;;;19.80;51.20;;;;;;6310744;28;20122;-69
2024/04/04 09:12:47;;;;;;;2.67;1.40;;;19.80;51.10;;;;;;6300778;28;20020;-72
2024/04/04 09:15:48;;;;;;;2.05;1.20;;;19.80;51.20;;;;;;6285373;28;20032;-71
2024/04/04 09:18:49;;;;;;;3.42;1.30;;;19.90;51.10;;;;;;6285205;28;20032;-69
2024/04/04 09:21:50;;;;;;;4.93;1.27;;;20.00;51.20;;;;;;6296482;28;20103;-72
2024/04/04 09:24:59;;;;;;;5.35;1.77;;;20.20;51.30;;;;;;6309763;28;20089;-69
2024/04/04 09:28:04;;;;;;;3.80;1.30;;;20.30;51.00;;;;;;6309035;28;20114;-70
2024/04/04 09:31:09;;;;;;;5.43;2.22;;;20.40;51.00;;;;;;6301509;28;20047;-71
2024/04/04 09:34:10;;;;;;;4.10;1.40;;;20.60;50.80;;;;;;6293454;28;20114;-71
2024/04/04 09:37:14;;;;;;;7.35;1.40;;;20.70;50.60;;;;;;6309306;28;20036;-70
2024/04/04 09:40:17;;;;;;;3.65;0.68;;;20.90;50.60;;;;;;6309722;28;20050;-72
2024/04/04 09:43:17;;;;;;;2.60;1.15;;;21.10;50.00;;;;;;6300849;28;20012;-71
2024/04/04 09:46:19;;;;;;;9.75;1.20;;;21.20;49.40;;;;;;6302539;28;20031;-70
2024/04/04 09:49:20;;;;;;;1.55;0.90;;;21.40;48.90;;;;;;6308714;28;20151;-69
2024/04/04 09:52:24;;;;;;;3.22;0.90;;;21.50;48.10;;;;;;6301805;28;20020;-71
2024/04/04 09:55:26;;;;;;;2.25;1.05;;;21.40;47.50;;;;;;6282407;28;20095;-71
2024/04/04 09:58:26;;;;;;;2.97;1.20;;;21.50;47.40;;;;;;6283467;28;20038;-73
2024/04/04 10:01:28;;;;;;;4.93;1.35;;;21.60;47.50;;;;;;6306295;28;20020;-72
2024/04/04 10:04:38;;;;;;;6.30;1.38;;;21.70;47.10;;;;;;6308211;28;20048;-70
2024/04/04 10:07:38;;;;;;;4.13;1.67;;;21.80;46.30;;;;;;6305524;28;20106;-71
2024/04/04 10:10:41;;;;;;;6.97;1.58;;;21.90;45.60;;;;;;6283616;28;20471;-71
2024/04/04 10:13:49;;;;;;;1.70;0.80;;;21.90;44.40;;;;;;6299086;28;20032;-71
2024/04/04 10:16:54;;;;;;;4.05;1.30;;;21.90;44.00;;;;;;6297380;28;20028;-70
2024/04/04 10:19:56;;;;;;;11.43;3.80;;;22.00;44.10;;;;;;6293266;28;20020;-70
2024/04/04 10:23:00;;;;;;;0.80;0.80;;;22.10;44.40;;;;;;6300010;28;20111;-71
2024/04/04 10:26:07;;;;;;;1.83;0.77;;;22.30;44.00;;;;;;6302672;28;20032;-71
2024/04/04 10:29:14;;;;;;;2.05;1.13;;;22.50;43.00;;;;;;6304944;28;20059;-71
2024/04/04 10:32:16;;;;;;;5.55;1.40;;;22.70;42.70;;;;;;6307945;28;20426;-71
2024/04/04 10:35:17;;;;;;;1.15;0.63;;;22.80;42.60;;;;;;6308096;28;20059;-70
2024/04/04 10:38:18;;;;;;;2.03;1.00;;;22.90;42.30;;;;;;6302446;28;20444;-70
2024/04/04 10:41:19;;;;;;;1.95;1.15;;;23.10;42.00;;;;;;6286940;28;20040;-71
2024/04/04 10:44:21;;;;;;;1.98;0.88;;;23.40;41.60;;;;;;6291413;28;20023;-69
2024/04/04 10:47:22;;;;;;;4.10;1.05;;;23.70;41.20;;;;;;6282931;28;20043;-70
2024/04/04 10:50:26;;;;;;;3.80;1.15;;;24.00;40.60;;;;;;6287481;28;20100;-69
2024/04/04 10:53:27;;;;;;;4.75;1.02;;;24.10;39.90;;;;;;6290326;28;20131;-71
2024/04/04 10:56:27;;;;;;;1.60;0.90;;;24.10;39.50;;;;;;6282470;28;20105;-70
2024/04/04 10:59:29;;;;;;;2.45;0.85;;;24.10;39.30;;;;;;6282171;28;20028;-70
2024/04/04 11:02:30;;;;;;;5.32;1.00;;;24.00;39.10;;;;;;6291674;28;20058;-70
2024/04/04 11:05:32;;;;;;;2.65;1.10;;;24.00;39.30;;;;;;6274203;28;20030;-71
2024/04/04 11:08:33;;;;;;;7.88;1.95;;;24.00;39.10;;;;;;6301934;28;20029;-69
2024/04/04 11:11:34;;;;;;;2.13;0.90;;;24.10;38.90;;;;;;6265934;28;20033;-71
2024/04/04 11:14:35;;;;;;;1.95;0.95;;;24.10;38.90;;;;;;6301922;28;21306;-70
2024/04/04 11:17:37;;;;;;;2.67;1.10;;;24.10;38.70;;;;;;6306160;28;20016;-69
2024/04/04 11:20:38;;;;;;;2.90;0.90;;;24.10;38.60;;;;;;6306143;28;20436;-70
2024/04/04 11:23:38;;;;;;;4.35;1.08;;;24.20;38.40;;;;;;6300326;28;20065;-70
2024/04/04 11:26:41;;;;;;;3.08;1.00;;;24.30;38.10;;;;;;6290215;28;20037;-71
2024/04/04 11:29:41;;;;;;;7.30;1.30;;;24.40;38.10;;;;;;6306532;28;20354;-70
2024/04/04 11:32:42;;;;;;;9.45;1.00;;;24.50;37.90;;;;;;6296289;28;20040;-71
2024/04/04 11:35:45;;;;;;;6.78;1.30;;;24.50;38.00;;;;;;6290940;28;20062;-70
2024/04/04 11:38:45;;;;;;;6.18;1.23;;;24.50;37.70;;;;;;6299079;28;20085;-70
2024/04/04 11:41:50;;;;;;;12.02;2.13;;;24.40;37.70;;;;;;6282738;28;20674;-70
2024/04/04 11:44:51;;;;;;;4.07;0.90;;;24.40;38.10;;;;;;6304754;28;20043;-70
2024/04/04 11:48:10;;;;;;;2.33;1.17;;;24.40;38.30;;;;;;6287541;28;20043;-70
2024/04/04 11:51:12;;;;;;;3.13;0.77;;;24.50;38.30;;;;;;6282294;28;20016;-70
2024/04/04 11:54:13;;;;;;;1.85;1.25;;;24.60;37.90;;;;;;6297665;28;20566;-73
2024/04/04 11:57:13;;;;;;;5.93;0.80;;;24.60;37.90;;;;;;6286866;28;20074;-69
2024/04/04 12:00:16;;;;;;;2.47;1.00;;;24.50;37.70;;;;;;6291108;28;20534;-70
2024/04/04 12:03:17;;;;;;;2.67;0.93;;;24.50;37.90;;;;;;6272387;28;20375;-69
2024/04/04 12:06:18;;;;;;;1.98;1.00;;;24.40;37.90;;;;;;6279669;28;20074;-69
2024/04/04 12:09:21;;;;;;;2.47;0.90;;;24.50;37.70;;;;;;6306111;28;20016;-71
2024/04/04 12:12:22;;;;;;;4.72;1.20;;;24.60;37.40;;;;;;6301630;28;20096;-70
2024/04/04 12:15:23;;;;;;;7.55;1.30;;;24.50;37.10;;;;;;6290211;28;20881;-68
2024/04/04 12:21:45;;;;;;;1.67;0.77;;;24.70;36.50;;;;;;6281003;28;20744;-70
2024/04/04 12:24:46;;;;;;;2.83;0.80;;;24.90;36.30;;;;;;6289937;28;20092;-70
2024/04/04 12:27:47;;;;;;;5.88;1.20;;;24.90;36.20;;;;;;6289523;28;20036;-70
2024/04/04 12:30:48;;;;;;;5.30;1.15;;;25.30;35.90;;;;;;6295541;28;20016;-71
2024/04/04 12:33:49;;;;;;;4.90;1.00;;;26.30;34.90;;;;;;6295723;28;20024;-68
2024/04/04 12:36:50;;;;;;;3.67;1.10;;;27.00;33.40;;;;;;6283353;28;20097;-70
2024/04/04 12:39:50;;;;;;;4.82;0.95;;;27.80;32.30;;;;;;6295290;28;20070;-71
2024/04/04 12:42:51;;;;;;;4.38;0.73;;;28.80;31.20;;;;;;6284692;28;20037;-72
2024/04/04 12:46:01;;;;;;;2.00;0.73;;;29.70;30.10;;;;;;6294272;28;20486;-69
2024/04/04 12:49:02;;;;;;;4.60;1.15;;;30.60;29.10;;;;;;6305628;28;20055;-70
2024/04/04 12:52:03;;;;;;;2.00;0.70;;;31.40;28.50;;;;;;6306190;28;20039;-70
2024/04/04 12:55:05;;;;;;;3.17;1.00;;;32.10;27.90;;;;;;6290303;28;20047;-70
2024/04/04 12:58:05;;;;;;;3.08;0.60;;;32.90;27.20;;;;;;6301424;28;20039;-70
2024/04/04 13:01:06;;;;;;;1.80;0.60;;;33.80;26.40;;;;;;6300582;28;20051;-70
2024/04/04 13:04:07;;;;;;;1.95;0.68;;;34.30;25.60;;;;;;6302124;28;20504;-70
2024/04/04 13:07:08;;;;;;;3.08;0.77;;;34.90;24.70;;;;;;6265430;28;20105;-69
2024/04/04 13:10:09;;;;;;;2.53;0.55;;;35.60;23.90;;;;;;6281244;28;20134;-69
2024/04/04 13:13:10;;;;;;;4.15;1.00;;;35.90;23.20;;;;;;6288953;28;20016;-67
2024/04/04 13:16:11;;;;;;;2.72;1.20;;;36.40;22.60;;;;;;6286303;28;20029;-70
2024/04/04 13:19:12;;;;;;;7.85;0.60;;;37.00;22.30;;;;;;6295937;28;20061;-71
2024/04/04 13:22:13;;;;;;;4.63;1.23;;;37.60;21.60;;;;;;6309991;28;20024;-71
2024/04/04 13:25:14;;;;;;;4.65;1.77;;;38.10;21.10;;;;;;6300035;28;20082;-70
2024/04/04 13:28:15;;;;;;;3.55;0.80;;;38.30;21.10;;;;;;6303289;28;20475;-71
2024/04/04 13:31:16;;;;;;;1.13;1.02;;;38.20;20.80;;;;;;6310045;28;20096;-71
2024/04/04 13:34:17;;;;;;;3.47;0.80;;;38.00;20.60;;;;;;6305030;28;20009;-70
2024/04/04 13:37:18;;;;;;;3.92;0.75;;;37.90;20.40;;;;;;6290583;28;20426;-69
2024/04/04 13:40:19;;;;;;;1.35;0.50;;;37.80;20.10;;;;;;6304671;28;20021;-70
2024/04/04 13:43:20;;;;;;;3.03;0.60;;;37.60;19.70;;;;;;6284397;28;20524;-72
2024/04/04 13:46:21;;;;;;;3.35;0.75;;;37.30;19.80;;;;;;6298819;28;20051;-70
2024/04/04 13:49:23;;;;;;;5.68;0.70;;;36.90;20.10;;;;;;6309672;28;20028;-69
2024/04/04 13:52:24;;;;;;;2.70;0.77;;;36.20;20.30;;;;;;6308097;28;20048;-71
2024/04/04 13:55:25;;;;;;;5.40;1.02;;;35.10;20.90;;;;;;6282273;28;20093;-70
2024/04/04 13:58:26;;;;;;;1.92;0.68;;;33.90;21.70;;;;;;6278568;28;20060;-69
2024/04/04 14:01:37;;;;;;;6.82;1.10;;;32.70;22.60;;;;;;6291570;28;20228;-70
2024/04/04 14:04:38;;;;;;;5.05;1.20;;;31.60;23.50;;;;;;6287662;28;20407;-71
2024/04/04 14:07:39;;;;;;;4.22;0.80;;;30.70;24.30;;;;;;6299420;28;20020;-70
2024/04/04 14:11:23;;;;;;;1.83;0.73;;;30.10;24.80;;;;;;6309411;28;20043;-70
2024/04/04 14:14:24;;;;;;;4.00;1.08;;;29.50;25.20;;;;;;6301592;28;20085;-71
2024/04/04 14:17:25;;;;;;;1.20;0.50;;;28.90;26.10;;;;;;6296650;28;20432;-69
2024/04/04 14:20:26;;;;;;;1.88;0.98;;;28.50;26.10;;;;;;6292848;28;20013;-71
2024/04/04 14:23:26;;;;;;;7.75;1.05;;;28.10;26.70;;;;;;6282862;28;20105;-69
2024/04/04 14:26:28;;;;;;;1.95;0.50;;;27.80;27.00;;;;;;6297528;28;20020;-71
2024/04/04 14:29:29;;;;;;;3.35;0.70;;;27.60;27.30;;;;;;6305460;28;20099;-69
2024/04/04 14:32:32;;;;;;;2.60;0.63;;;27.50;27.60;;;;;;6308861;28;20356;-69
2024/04/04 14:35:34;;;;;;;2.05;0.90;;;27.40;27.50;;;;;;6301971;28;20047;-70
2024/04/04 14:38:36;;;;;;;3.88;1.05;;;27.50;27.40;;;;;;6307999;28;20090;-71
2024/04/04 14:41:38;;;;;;;2.35;0.80;;;27.50;27.20;;;;;;6289710;28;20027;-70
2024/04/04 14:44:38;;;;;;;8.27;0.93;;;27.50;27.00;;;;;;6307552;28;20027;-69
2024/04/04 14:47:40;;;;;;;2.83;0.77;;;27.50;26.90;;;;;;6292061;28;20103;-69
2024/04/04 14:50:41;;;;;;;1.35;0.50;;;27.40;26.90;;;;;;6289367;28;20067;-70
2024/04/04 14:53:53;;;;;;;2.13;0.65;;;27.40;26.70;;;;;;6307513;28;20609;-70
2024/04/04 14:56:57;;;;;;;0.52;0.40;;;27.50;26.80;;;;;;6304340;28;20128;-70
2024/04/04 15:00:38;;;;;;;1.77;0.70;;;27.50;26.50;;;;;;6309769;28;20436;-71
2024/04/04 15:03:41;;;;;;;2.80;1.00;;;27.50;26.40;;;;;;6288198;28;20033;-70
2024/04/04 15:06:42;;;;;;;1.70;0.80;;;27.60;26.50;;;;;;6273899;28;20108;-71
2024/04/04 15:09:44;;;;;;;3.63;0.82;;;27.50;26.90;;;;;;6288520;28;20169;-71
2024/04/04 15:12:44;;;;;;;2.00;0.73;;;27.40;27.20;;;;;;6306864;28;20027;-71
2024/04/04 15:15:46;;;;;;;4.40;0.70;;;27.30;27.40;;;;;;6282065;28;20066;-72
2024/04/04 15:18:47;;;;;;;5.03;0.63;;;27.30;27.30;;;;;;6288049;28;20008;-69
2024/04/04 15:21:48;;;;;;;3.55;0.70;;;27.10;27.20;;;;;;6281496;28;20193;-70
2024/04/04 15:24:48;;;;;;;1.15;0.60;;;27.10;27.30;;;;;;6285844;28;20474;-70
2024/04/04 15:27:49;;;;;;;6.13;0.82;;;27.00;27.30;;;;;;6301699;28;20051;-70
2024/04/04 15:30:50;;;;;;;5.20;0.90;;;27.00;27.30;;;;;;6306096;28;20028;-70
2024/04/04 15:33:51;;;;;;;2.15;0.60;;;27.00;27.20;;;;;;6291149;28;20492;-70
2024/04/04 15:36:52;;;;;;;3.53;2.03;;;26.90;27.10;;;;;;6291400;28;20024;-71
2024/04/04 15:39:55;;;;;;;1.83;0.50;;;26.90;27.10;;;;;;6263720;28;20115;-69
2024/04/04 15:42:56;;;;;;;2.20;0.80;;;26.90;27.10;;;;;;6263148;28;20042;-68
2024/04/04 15:45:57;;;;;;;0.57;0.40;;;26.80;26.90;;;;;;6293633;28;20456;-71
2024/04/04 15:48:58;;;;;;;1.92;1.10;;;26.80;26.90;;;;;;6300375;28;20118;-70